sensor_id;sensor_type;location;lat;lon;timestamp;pressure;altitude;pressure_sealevel;temperature;humidity
4981;BME280;2507;50.392;7.482;2023-04-01T00:01:06;98860.66;;;12.33;71.76
4981;BME280;2507;50.392;7.482;2023-04-01T00:03:32;98854.78;;;12.39;71.35
4981;BME280;2507;50.392;7.482;2023-04-01T00:05:58;98869.56;;;12.40;71.42
4981;BME280;2507;50.392;7.482;2023-04-01T00:08:24;98860.66;;;12.33;71.25
4981;BME280;2507;50.392;7.482;2023-04-01T00:10:50;98852.78;;;12.33;71.60
4981;BME280;2507;50.392;7.482;2023-04-01T00:13:16;98856.56;;;12.39;71.71
4981;BME280;2507;50.392;7.482;2023-04-01T00:15:42;98861.84;;;12.39;71.75
4981;BME280;2507;50.392;7.482;2023-04-01T00:18:07;98859.69;;;12.42;71.13
4981;BME280;2507;50.392;7.482;2023-04-01T00:20:32;98865.63;;;12.44;70.96
4981;BME280;2507;50.392;7.482;2023-04-01T00:22:57;98844.41;;;12.29;71.82
4981;BME280;2507;50.392;7.482;2023-04-01T00:25:23;98853.13;;;12.30;71.41
4981;BME280;2507;50.392;7.482;2023-04-01T00:27:48;98858.41;;;12.38;71.01
4981;BME280;2507;50.392;7.482;2023-04-01T00:30:15;98862.16;;;12.44;70.50
4981;BME280;2507;50.392;7.482;2023-04-01T00:32:40;98874.97;;;12.39;70.81
4981;BME280;2507;50.392;7.482;2023-04-01T00:35:06;98856.09;;;12.51;70.34
4981;BME280;2507;50.392;7.482;2023-04-01T00:37:35;98862.03;;;12.45;70.28
4981;BME280;2507;50.392;7.482;2023-04-01T00:40:02;98855.75;;;12.46;70.32
4981;BME280;2507;50.392;7.482;2023-04-01T00:42:28;98861.03;;;12.46;70.08
4981;BME280;2507;50.392;7.482;2023-04-01T00:44:54;98863.84;;;12.53;69.68
4981;BME280;2507;50.392;7.482;2023-04-01T00:47:20;98855.13;;;12.52;70.00
4981;BME280;2507;50.392;7.482;2023-04-01T00:49:51;98846.53;;;12.58;69.59
4981;BME280;2507;50.392;7.482;2023-04-01T00:52:21;98868.91;;;12.62;68.98
4981;BME280;2507;50.392;7.482;2023-04-01T00:54:50;98863.00;;;12.60;69.73
4981;BME280;2507;50.392;7.482;2023-04-01T00:57:24;98848.03;;;12.61;69.27
4981;BME280;2507;50.392;7.482;2023-04-01T00:59:54;98849.50;;;12.55;69.29
4981;BME280;2507;50.392;7.482;2023-04-01T01:02:20;98853.31;;;12.53;69.43
4981;BME280;2507;50.392;7.482;2023-04-01T01:04:46;98850.84;;;12.43;69.77
4981;BME280;2507;50.392;7.482;2023-04-01T01:10:19;98853.94;;;12.39;70.06
4981;BME280;2507;50.392;7.482;2023-04-01T01:18:43;98857.38;;;12.31;69.67
4981;BME280;2507;50.392;7.482;2023-04-01T01:27:08;98855.41;;;12.49;69.44
4981;BME280;2507;50.392;7.482;2023-04-01T01:35:38;98852.16;;;12.55;69.26
4981;BME280;2507;50.392;7.482;2023-04-01T01:38:09;98860.69;;;12.41;70.13
4981;BME280;2507;50.392;7.482;2023-04-01T01:40:38;98856.91;;;12.36;69.97
4981;BME280;2507;50.392;7.482;2023-04-01T01:43:08;98845.19;;;12.22;70.58
4981;BME280;2507;50.392;7.482;2023-04-01T01:45:39;98844.91;;;12.25;70.63
4981;BME280;2507;50.392;7.482;2023-04-01T01:48:06;98843.25;;;12.24;70.89
4981;BME280;2507;50.392;7.482;2023-04-01T01:50:33;98849.16;;;12.26;70.66
4981;BME280;2507;50.392;7.482;2023-04-01T01:53:05;98842.91;;;12.19;71.87
4981;BME280;2507;50.392;7.482;2023-04-01T01:55:34;98846.03;;;12.22;71.13
4981;BME280;2507;50.392;7.482;2023-04-01T02:00:46;98849.16;;;12.42;70.37
4981;BME280;2507;50.392;7.482;2023-04-01T02:03:14;98846.56;;;12.34;70.63
4981;BME280;2507;50.392;7.482;2023-04-01T02:05:40;98835.84;;;12.27;70.59
4981;BME280;2507;50.392;7.482;2023-04-01T02:08:09;98833.72;;;12.23;70.85
4981;BME280;2507;50.392;7.482;2023-04-01T02:10:40;98837.66;;;12.27;70.35
4981;BME280;2507;50.392;7.482;2023-04-01T02:13:23;98839.31;;;12.28;70.38
4981;BME280;2507;50.392;7.482;2023-04-01T02:15:50;98828.78;;;12.28;70.37
4981;BME280;2507;50.392;7.482;2023-04-01T02:18:20;98843.41;;;12.22;70.41
4981;BME280;2507;50.392;7.482;2023-04-01T02:20:46;98844.53;;;12.20;70.63
4981;BME280;2507;50.392;7.482;2023-04-01T02:23:12;98842.91;;;12.19;70.58
4981;BME280;2507;50.392;7.482;2023-04-01T02:25:39;98842.06;;;12.10;71.02
4981;BME280;2507;50.392;7.482;2023-04-01T02:28:06;98844.03;;;12.08;71.30
4981;BME280;2507;50.392;7.482;2023-04-01T02:30:35;98844.53;;;12.20;70.88
4981;BME280;2507;50.392;7.482;2023-04-01T02:33:01;98840.28;;;12.35;70.13
4981;BME280;2507;50.392;7.482;2023-04-01T02:35:27;98845.06;;;12.23;70.55
4981;BME280;2507;50.392;7.482;2023-04-01T02:37:55;98845.69;;;12.17;70.99
4981;BME280;2507;50.392;7.482;2023-04-01T02:40:21;98856.56;;;12.14;70.95
4981;BME280;2507;50.392;7.482;2023-04-01T02:42:46;98833.06;;;12.21;70.49
4981;BME280;2507;50.392;7.482;2023-04-01T02:45:13;98844.50;;;12.04;71.08
4981;BME280;2507;50.392;7.482;2023-04-01T02:47:39;98836.63;;;12.04;71.40
4981;BME280;2507;50.392;7.482;2023-04-01T02:50:05;98835.00;;;12.11;71.00
4981;BME280;2507;50.392;7.482;2023-04-01T02:52:31;98838.94;;;12.15;70.64
4981;BME280;2507;50.392;7.482;2023-04-01T02:54:57;98836.81;;;12.10;70.83
4981;BME280;2507;50.392;7.482;2023-04-01T02:57:22;98835.84;;;12.27;70.09
4981;BME280;2507;50.392;7.482;2023-04-01T02:59:48;98830.09;;;12.16;70.08
4981;BME280;2507;50.392;7.482;2023-04-01T03:02:13;98836.50;;;12.21;69.95
4981;BME280;2507;50.392;7.482;2023-04-01T03:04:39;98818.56;;;12.01;70.48
4981;BME280;2507;50.392;7.482;2023-04-01T03:07:04;98822.81;;;11.94;71.12
4981;BME280;2507;50.392;7.482;2023-04-01T03:09:30;98834.97;;;11.95;71.28
4981;BME280;2507;50.392;7.482;2023-04-01T03:11:56;98822.47;;;11.97;70.64
4981;BME280;2507;50.392;7.482;2023-04-01T03:14:21;98827.75;;;11.97;70.68
4981;BME280;2507;50.392;7.482;2023-04-01T03:16:46;98830.56;;;12.03;70.08
4981;BME280;2507;50.392;7.482;2023-04-01T03:19:12;98828.13;;;12.18;69.41
4981;BME280;2507;50.392;7.482;2023-04-01T03:21:37;98835.84;;;12.19;69.69
4981;BME280;2507;50.392;7.482;2023-04-01T03:24:02;98829.94;;;12.17;69.68
4981;BME280;2507;50.392;7.482;2023-04-01T03:26:28;98826.81;;;12.14;69.65
4981;BME280;2507;50.392;7.482;2023-04-01T03:28:53;98837.00;;;12.25;69.23
4981;BME280;2507;50.392;7.482;2023-04-01T03:31:19;98824.84;;;12.16;69.49
4981;BME280;2507;50.392;7.482;2023-04-01T03:33:44;98826.63;;;12.15;69.30
4981;BME280;2507;50.392;7.482;2023-04-01T03:36:10;98828.09;;;12.10;69.69
4981;BME280;2507;50.392;7.482;2023-04-01T03:38:37;98830.41;;;12.13;69.95
4981;BME280;2507;50.392;7.482;2023-04-01T03:41:03;98821.69;;;12.20;69.57
4981;BME280;2507;50.392;7.482;2023-04-01T03:43:28;98831.88;;;12.07;69.76
4981;BME280;2507;50.392;7.482;2023-04-01T03:45:54;98827.44;;;12.00;70.23
4981;BME280;2507;50.392;7.482;2023-04-01T03:48:20;98827.44;;;12.08;70.02
4981;BME280;2507;50.392;7.482;2023-04-01T03:50:46;98817.75;;;12.16;69.66
4981;BME280;2507;50.392;7.482;2023-04-01T03:53:11;98811.66;;;12.08;69.73
4981;BME280;2507;50.392;7.482;2023-04-01T03:55:37;98817.09;;;12.06;69.78
4981;BME280;2507;50.392;7.482;2023-04-01T03:58:03;98817.56;;;12.02;70.00
4981;BME280;2507;50.392;7.482;2023-04-01T04:00:30;98814.78;;;12.03;69.97
4981;BME280;2507;50.392;7.482;2023-04-01T04:02:55;98819.22;;;12.11;69.68
4981;BME280;2507;50.392;7.482;2023-04-01T04:05:24;98813.31;;;12.09;69.67
4981;BME280;2507;50.392;7.482;2023-04-01T04:07:50;98804.09;;;12.13;69.09
4981;BME280;2507;50.392;7.482;2023-04-01T04:10:15;98808.19;;;12.07;69.67
4981;BME280;2507;50.392;7.482;2023-04-01T04:12:40;98821.19;;;12.01;69.80
4981;BME280;2507;50.392;7.482;2023-04-01T04:15:07;98812.31;;;12.10;69.31
4981;BME280;2507;50.392;7.482;2023-04-01T04:17:32;98814.28;;;12.08;69.34
4981;BME280;2507;50.392;7.482;2023-04-01T04:19:57;98808.72;;;12.03;69.10
4981;BME280;2507;50.392;7.482;2023-04-01T04:22:23;98812.63;;;11.91;69.77
4981;BME280;2507;50.392;7.482;2023-04-01T04:24:48;98803.25;;;11.96;69.68
4981;BME280;2507;50.392;7.482;2023-04-01T04:27:14;98816.75;;;12.01;69.50
4981;BME280;2507;50.392;7.482;2023-04-01T04:29:39;98823.97;;;11.99;69.52
4981;BME280;2507;50.392;7.482;2023-04-01T04:32:04;98812.81;;;11.97;69.41
4981;BME280;2507;50.392;7.482;2023-04-01T04:34:30;98819.88;;;12.05;68.68
4981;BME280;2507;50.392;7.482;2023-04-01T04:36:55;98811.84;;;12.06;68.48
4981;BME280;2507;50.392;7.482;2023-04-01T04:39:20;98817.25;;;12.13;68.31
4981;BME280;2507;50.392;7.482;2023-04-01T04:41:45;98815.47;;;12.21;67.79
4981;BME280;2507;50.392;7.482;2023-04-01T04:44:11;98817.09;;;12.06;68.39
4981;BME280;2507;50.392;7.482;2023-04-01T04:46:36;98820.53;;;11.99;69.01
4981;BME280;2507;50.392;7.482;2023-04-01T04:49:04;98816.41;;;11.96;69.17
4981;BME280;2507;50.392;7.482;2023-04-01T04:51:29;98825.78;;;11.99;69.25
4981;BME280;2507;50.392;7.482;2023-04-01T04:53:55;98824.47;;;12.11;68.41
4981;BME280;2507;50.392;7.482;2023-04-01T04:56:21;98832.69;;;12.00;68.97
4981;BME280;2507;50.392;7.482;2023-04-01T04:58:48;98825.44;;;12.02;69.54
4981;BME280;2507;50.392;7.482;2023-04-01T05:01:15;98832.03;;;11.98;69.53
4981;BME280;2507;50.392;7.482;2023-04-01T05:03:40;98828.44;;;12.07;69.26
4981;BME280;2507;50.392;7.482;2023-04-01T05:06:07;98834.81;;;12.04;69.40
4981;BME280;2507;50.392;7.482;2023-04-01T05:08:33;98819.22;;;12.11;69.22
4981;BME280;2507;50.392;7.482;2023-04-01T05:10:59;98824.47;;;12.11;69.71
4981;BME280;2507;50.392;7.482;2023-04-01T05:13:25;98816.78;;;12.17;69.17
4981;BME280;2507;50.392;7.482;2023-04-01T05:15:50;98825.00;;;12.14;69.33
4981;BME280;2507;50.392;7.482;2023-04-01T05:18:15;98822.50;;;12.13;69.39
4981;BME280;2507;50.392;7.482;2023-04-01T05:20:48;98821.69;;;12.04;70.10
4981;BME280;2507;50.392;7.482;2023-04-01T05:23:14;98842.06;;;12.18;69.70
4981;BME280;2507;50.392;7.482;2023-04-01T05:25:39;98819.75;;;12.14;69.87
4981;BME280;2507;50.392;7.482;2023-04-01T05:28:05;98833.06;;;12.29;69.48
4981;BME280;2507;50.392;7.482;2023-04-01T05:30:30;98840.63;;;12.32;69.09
4981;BME280;2507;50.392;7.482;2023-04-01T05:32:55;98835.19;;;12.25;69.81
4981;BME280;2507;50.392;7.482;2023-04-01T05:35:20;98831.41;;;12.44;69.02
4981;BME280;2507;50.392;7.482;2023-04-01T05:37:46;98834.88;;;12.37;69.33
4981;BME280;2507;50.392;7.482;2023-04-01T05:42:43;98839.31;;;12.28;69.67
4981;BME280;2507;50.392;7.482;2023-04-01T05:45:09;98836.03;;;12.42;69.55
4981;BME280;2507;50.392;7.482;2023-04-01T05:47:35;98868.56;;;12.33;69.53
4981;BME280;2507;50.392;7.482;2023-04-01T05:50:00;98835.50;;;12.22;70.09
4981;BME280;2507;50.392;7.482;2023-04-01T05:52:25;98826.97;;;12.20;70.40
4981;BME280;2507;50.392;7.482;2023-04-01T05:54:51;98837.31;;;12.22;70.37
4981;BME280;2507;50.392;7.482;2023-04-01T05:57:16;98838.97;;;12.31;70.06
4981;BME280;2507;50.392;7.482;2023-04-01T05:59:41;98838.00;;;12.40;70.04
4981;BME280;2507;50.392;7.482;2023-04-01T06:02:08;98840.28;;;12.35;70.03
4981;BME280;2507;50.392;7.482;2023-04-01T06:04:38;98840.28;;;12.35;70.37
4981;BME280;2507;50.392;7.482;2023-04-01T06:07:11;98834.22;;;12.51;69.59
4981;BME280;2507;50.392;7.482;2023-04-01T06:09:37;98855.75;;;12.46;69.64
4981;BME280;2507;50.392;7.482;2023-04-01T06:12:45;98849.19;;;12.58;69.50
4981;BME280;2507;50.392;7.482;2023-04-01T06:15:36;98854.13;;;12.61;68.96
4981;BME280;2507;50.392;7.482;2023-04-01T06:32:15;98870.09;;;12.76;68.47
4981;BME280;2507;50.392;7.482;2023-04-01T06:35:07;98876.16;;;12.52;69.48
4981;BME280;2507;50.392;7.482;2023-04-01T06:43:47;98873.84;;;12.73;69.40
4981;BME280;2507;50.392;7.482;2023-04-01T06:49:27;98880.44;;;12.61;69.78
4981;BME280;2507;50.392;7.482;2023-04-01T06:52:27;98878.63;;;12.70;69.44
4981;BME280;2507;50.392;7.482;2023-04-01T06:55:08;98878.78;;;13.00;68.17
4981;BME280;2507;50.392;7.482;2023-04-01T06:57:46;98879.59;;;13.01;68.08
4981;BME280;2507;50.392;7.482;2023-04-01T07:00:39;98880.44;;;12.93;68.31
4981;BME280;2507;50.392;7.482;2023-04-01T07:03:16;98878.81;;;12.92;68.62
4981;BME280;2507;50.392;7.482;2023-04-01T07:05:43;98877.63;;;12.95;68.94
4981;BME280;2507;50.392;7.482;2023-04-01T07:08:12;98877.50;;;13.12;67.97
4981;BME280;2507;50.392;7.482;2023-04-01T07:10:46;98880.44;;;13.01;68.31
4981;BME280;2507;50.392;7.482;2023-04-01T07:13:18;98874.50;;;12.91;69.22
4981;BME280;2507;50.392;7.482;2023-04-01T07:15:55;98880.13;;;13.04;68.64
4981;BME280;2507;50.392;7.482;2023-04-01T07:18:34;98885.84;;;13.24;68.12
4981;BME280;2507;50.392;7.482;2023-04-01T07:21:01;98899.22;;;13.06;68.60
4981;BME280;2507;50.392;7.482;2023-04-01T07:23:39;98895.59;;;13.23;67.83
4981;BME280;2507;50.392;7.482;2023-04-01T07:26:15;98890.94;;;13.25;68.29
4981;BME280;2507;50.392;7.482;2023-04-01T07:28:40;98898.34;;;13.30;67.71
4981;BME280;2507;50.392;7.482;2023-04-01T07:31:15;98896.91;;;13.19;68.36
4981;BME280;2507;50.392;7.482;2023-04-01T07:36:36;98900.84;;;13.23;68.26
4981;BME280;2507;50.392;7.482;2023-04-01T07:40:04;98905.13;;;13.24;68.28
4981;BME280;2507;50.392;7.482;2023-04-01T07:45:06;98900.31;;;13.44;67.76
4981;BME280;2507;50.392;7.482;2023-04-01T07:47:38;98903.75;;;13.53;67.70
4981;BME280;2507;50.392;7.482;2023-04-01T07:53:05;98909.78;;;13.69;66.93
4981;BME280;2507;50.392;7.482;2023-04-01T08:06:29;98919.41;;;13.93;66.21
4981;BME280;2507;50.392;7.482;2023-04-01T08:09:47;98921.56;;;13.89;66.48
4981;BME280;2507;50.392;7.482;2023-04-01T08:12:03;98920.34;;;14.08;66.35
4981;BME280;2507;50.392;7.482;2023-04-01T08:14:48;98929.56;;;14.12;65.66
4981;BME280;2507;50.392;7.482;2023-04-01T08:17:33;98929.00;;;14.32;64.94
4981;BME280;2507;50.392;7.482;2023-04-01T08:20:27;98936.03;;;14.40;64.37
4981;BME280;2507;50.392;7.482;2023-04-01T08:22:58;98932.88;;;14.45;64.65
4981;BME280;2507;50.392;7.482;2023-04-01T08:25:28;98936.69;;;14.42;64.60
4981;BME280;2507;50.392;7.482;2023-04-01T08:28:00;98942.41;;;14.54;64.35
4981;BME280;2507;50.392;7.482;2023-04-01T08:30:54;98943.34;;;14.61;64.21
4981;BME280;2507;50.392;7.482;2023-04-01T08:33:27;98944.50;;;14.58;64.66
4981;BME280;2507;50.392;7.482;2023-04-01T08:35:57;98947.38;;;14.49;64.24
4981;BME280;2507;50.392;7.482;2023-04-01T08:38:31;98953.53;;;14.41;64.51
4981;BME280;2507;50.392;7.482;2023-04-01T08:44:16;98947.13;;;14.58;65.22
4981;BME280;2507;50.392;7.482;2023-04-01T08:50:02;98940.88;;;14.59;64.24
4981;BME280;2507;50.392;7.482;2023-04-01T08:52:36;98943.28;;;14.69;64.24
4981;BME280;2507;50.392;7.482;2023-04-01T08:55:27;98946.88;;;14.76;64.31
4981;BME280;2507;50.392;7.482;2023-04-01T08:58:06;98951.69;;;14.72;64.21
4981;BME280;2507;50.392;7.482;2023-04-01T09:00:51;98952.63;;;14.79;64.39
4981;BME280;2507;50.392;7.482;2023-04-01T09:03:31;98955.97;;;14.73;63.14
4981;BME280;2507;50.392;7.482;2023-04-01T09:11:39;98960.00;;;14.61;63.03
4981;BME280;2507;50.392;7.482;2023-04-01T09:17:58;98968.09;;;14.82;62.94
4981;BME280;2507;50.392;7.482;2023-04-01T09:20:35;98962.88;;;14.97;61.94
4981;BME280;2507;50.392;7.482;2023-04-01T09:26:06;98968.22;;;15.11;60.78
4981;BME280;2507;50.392;7.482;2023-04-01T09:31:37;98971.81;;;15.41;60.08
4981;BME280;2507;50.392;7.482;2023-04-01T09:37:19;98968.63;;;15.23;60.08
4981;BME280;2507;50.392;7.482;2023-04-01T09:40:02;98974.59;;;15.40;59.16
4981;BME280;2507;50.392;7.482;2023-04-01T09:42:52;98971.81;;;15.33;59.70
4981;BME280;2507;50.392;7.482;2023-04-01T09:45:44;99025.59;;;15.48;59.20
4981;BME280;2507;50.392;7.482;2023-04-01T09:56:45;98985.22;;;15.54;59.23
4981;BME280;2507;50.392;7.482;2023-04-01T10:13:24;98995.94;;;16.04;58.12
4981;BME280;2507;50.392;7.482;2023-04-01T10:16:00;98997.22;;;16.08;57.74
4981;BME280;2507;50.392;7.482;2023-04-01T10:24:13;99010.72;;;16.13;57.33
4981;BME280;2507;50.392;7.482;2023-04-01T10:29:41;99015.81;;;16.00;58.39
4981;BME280;2507;50.392;7.482;2023-04-01T10:32:24;99016.56;;;15.80;59.11
4981;BME280;2507;50.392;7.482;2023-04-01T10:40:25;99017.47;;;15.87;59.09
4981;BME280;2507;50.392;7.482;2023-04-01T10:48:43;99020.88;;;15.44;59.32
4981;BME280;2507;50.392;7.482;2023-04-01T10:51:20;99020.69;;;15.37;59.69
4981;BME280;2507;50.392;7.482;2023-04-01T10:54:13;99026.63;;;15.47;60.51
4981;BME280;2507;50.392;7.482;2023-04-01T10:59:51;99020.91;;;15.87;58.14
4981;BME280;2507;50.392;7.482;2023-04-01T11:11:27;99028.34;;;16.06;57.14
4981;BME280;2507;50.392;7.482;2023-04-01T11:17:09;99021.53;;;15.75;57.92
4981;BME280;2507;50.392;7.482;2023-04-01T11:19:54;99023.03;;;15.92;57.92
4981;BME280;2507;50.392;7.482;2023-04-01T11:22:52;99020.41;;;16.21;56.62
4981;BME280;2507;50.392;7.482;2023-04-01T11:36:32;99039.56;;;15.94;57.05
4981;BME280;2507;50.392;7.482;2023-04-01T11:39:20;99035.44;;;15.91;57.92
4981;BME280;2507;50.392;7.482;2023-04-01T11:41:59;99043.13;;;16.01;57.04
4981;BME280;2507;50.392;7.482;2023-04-01T11:44:29;99039.47;;;16.31;56.17
4981;BME280;2507;50.392;7.482;2023-04-01T11:52:51;99039.75;;;16.07;56.93
4981;BME280;2507;50.392;7.482;2023-04-01T11:55:31;99056.28;;;16.38;57.07
4981;BME280;2507;50.392;7.482;2023-04-01T12:00:44;99057.25;;;16.81;57.19
4981;BME280;2507;50.392;7.482;2023-04-01T12:06:39;99060.91;;;17.15;56.15
4981;BME280;2507;50.392;7.482;2023-04-01T12:17:36;99075.09;;;16.58;57.79
4981;BME280;2507;50.392;7.482;2023-04-01T12:26:06;99080.88;;;16.97;55.54
4981;BME280;2507;50.392;7.482;2023-04-01T12:31:53;99088.22;;;16.66;56.54
4981;BME280;2507;50.392;7.482;2023-04-01T12:34:34;99098.66;;;16.67;55.29
4981;BME280;2507;50.392;7.482;2023-04-01T12:43:01;99100.22;;;16.47;56.74
4981;BME280;2507;50.392;7.482;2023-04-01T12:45:35;99097.09;;;16.58;55.68
4981;BME280;2507;50.392;7.482;2023-04-01T12:48:21;99102.53;;;16.42;55.47
4981;BME280;2507;50.392;7.482;2023-04-01T12:56:40;99105.31;;;16.34;55.84
4981;BME280;2507;50.392;7.482;2023-04-01T12:59:40;99094.94;;;16.47;55.52
4981;BME280;2507;50.392;7.482;2023-04-01T13:02:31;99116.13;;;16.47;55.55
4981;BME280;2507;50.392;7.482;2023-04-01T13:07:57;99110.94;;;16.46;55.28
4981;BME280;2507;50.392;7.482;2023-04-01T13:13:32;99113.53;;;16.68;55.26
4981;BME280;2507;50.392;7.482;2023-04-01T13:18:55;99112.25;;;16.79;54.41
4981;BME280;2507;50.392;7.482;2023-04-01T13:21:51;99109.16;;;16.75;54.87
4981;BME280;2507;50.392;7.482;2023-04-01T13:27:44;99121.63;;;17.31;54.24
4981;BME280;2507;50.392;7.482;2023-04-01T13:30:26;99126.56;;;17.34;54.38
4981;BME280;2507;50.392;7.482;2023-04-01T13:33:25;99120.72;;;17.03;54.09
4981;BME280;2507;50.392;7.482;2023-04-01T13:38:41;99119.06;;;16.29;55.51
4981;BME280;2507;50.392;7.482;2023-04-01T13:41:43;99119.63;;;16.40;56.17
4981;BME280;2507;50.392;7.482;2023-04-01T13:44:39;99123.75;;;16.71;55.64
4981;BME280;2507;50.392;7.482;2023-04-01T13:47:17;99132.34;;;16.73;55.90
4981;BME280;2507;50.392;7.482;2023-04-01T13:50:06;99121.75;;;16.73;55.13
4981;BME280;2507;50.392;7.482;2023-04-01T14:03:48;99139.81;;;17.34;52.14
4981;BME280;2507;50.392;7.482;2023-04-01T14:09:37;99136.03;;;17.22;51.31
4981;BME280;2507;50.392;7.482;2023-04-01T14:12:29;99146.56;;;17.16;52.05
4981;BME280;2507;50.392;7.482;2023-04-01T14:28:02;99162.84;;;16.69;53.39
4981;BME280;2507;50.392;7.482;2023-04-01T14:33:37;99164.06;;;16.96;52.51
4981;BME280;2507;50.392;7.482;2023-04-01T14:36:33;99167.81;;;16.58;51.84
4981;BME280;2507;50.392;7.482;2023-04-01T14:42:15;99175.84;;;16.12;53.76
4981;BME280;2507;50.392;7.482;2023-04-01T14:47:56;99171.72;;;15.87;54.98
4981;BME280;2507;50.392;7.482;2023-04-01T14:50:27;99183.72;;;15.98;54.83
4981;BME280;2507;50.392;7.482;2023-04-01T14:52:59;99180.78;;;15.93;54.52
4981;BME280;2507;50.392;7.482;2023-04-01T14:55:49;99184.91;;;15.95;54.34
4981;BME280;2507;50.392;7.482;2023-04-01T14:58:17;99189.03;;;15.98;54.58
4981;BME280;2507;50.392;7.482;2023-04-01T15:01:00;99189.50;;;16.01;54.03
4981;BME280;2507;50.392;7.482;2023-04-01T15:04:15;99200.53;;;16.05;54.06
4981;BME280;2507;50.392;7.482;2023-04-01T15:10:00;99208.25;;;16.14;53.83
4981;BME280;2507;50.392;7.482;2023-04-01T15:13:24;99210.63;;;16.24;53.90
4981;BME280;2507;50.392;7.482;2023-04-01T15:15:48;99216.56;;;16.26;54.19
4981;BME280;2507;50.392;7.482;2023-04-01T15:21:44;99205.25;;;15.95;54.23
4981;BME280;2507;50.392;7.482;2023-04-01T15:27:05;99211.25;;;15.89;53.79
4981;BME280;2507;50.392;7.482;2023-04-01T15:38:33;99236.41;;;15.85;54.53
4981;BME280;2507;50.392;7.482;2023-04-01T15:41:08;99240.66;;;15.94;54.94
4981;BME280;2507;50.392;7.482;2023-04-01T15:43:42;99241.69;;;16.07;54.47
4981;BME280;2507;50.392;7.482;2023-04-01T15:46:46;99240.66;;;15.94;53.85
4981;BME280;2507;50.392;7.482;2023-04-01T15:51:46;99251.91;;;15.88;54.33
4981;BME280;2507;50.392;7.482;2023-04-01T15:54:23;99254.75;;;15.86;54.12
4981;BME280;2507;50.392;7.482;2023-04-01T16:02:48;99261.19;;;15.84;54.46
4981;BME280;2507;50.392;7.482;2023-04-01T16:05:27;99257.75;;;15.83;55.36
4981;BME280;2507;50.392;7.482;2023-04-01T16:16:56;99264.34;;;15.57;56.12
4981;BME280;2507;50.392;7.482;2023-04-01T16:19:52;99269.78;;;15.63;54.92
4981;BME280;2507;50.392;7.482;2023-04-01T16:22:33;99269.63;;;15.57;55.19
4981;BME280;2507;50.392;7.482;2023-04-01T16:30:37;99290.28;;;15.61;55.30
4981;BME280;2507;50.392;7.482;2023-04-01T16:33:21;99291.44;;;15.59;55.18
4981;BME280;2507;50.392;7.482;2023-04-01T16:38:37;99297.84;;;15.64;55.34
4981;BME280;2507;50.392;7.482;2023-04-01T16:41:25;99303.56;;;15.45;56.08
4981;BME280;2507;50.392;7.482;2023-04-01T16:44:17;99306.06;;;15.30;56.48
4981;BME280;2507;50.392;7.482;2023-04-01T16:46:46;99307.09;;;15.21;57.41
4981;BME280;2507;50.392;7.482;2023-04-01T16:49:35;99307.19;;;15.44;57.23
4981;BME280;2507;50.392;7.482;2023-04-01T16:54:31;99321.09;;;15.38;57.35
4981;BME280;2507;50.392;7.482;2023-04-01T16:59:58;99317.38;;;15.08;56.93
4981;BME280;2507;50.392;7.482;2023-04-01T17:02:35;99325.59;;;15.13;56.92
4981;BME280;2507;50.392;7.482;2023-04-01T17:05:10;99326.91;;;15.17;56.87
4981;BME280;2507;50.392;7.482;2023-04-01T17:08:06;99333.47;;;15.38;56.07
4981;BME280;2507;50.392;7.482;2023-04-01T17:10:51;99329.69;;;15.24;56.46
4981;BME280;2507;50.392;7.482;2023-04-01T17:19:42;99348.25;;;15.08;57.85
4981;BME280;2507;50.392;7.482;2023-04-01T17:22:25;99361.78;;;14.97;57.71
4981;BME280;2507;50.392;7.482;2023-04-01T17:27:52;99362.47;;;14.91;58.49
4981;BME280;2507;50.392;7.482;2023-04-01T17:41:25;99385.06;;;14.53;59.06
4981;BME280;2507;50.392;7.482;2023-04-01T17:44:01;99392.19;;;14.77;58.87
4981;BME280;2507;50.392;7.482;2023-04-01T17:46:56;99397.28;;;14.78;58.81
4981;BME280;2507;50.392;7.482;2023-04-01T17:49:36;99405.22;;;14.78;58.75
4981;BME280;2507;50.392;7.482;2023-04-01T18:05:57;99447.16;;;13.82;66.81
4981;BME280;2507;50.392;7.482;2023-04-01T18:22:45;99461.22;;;13.90;69.99
4981;BME280;2507;50.392;7.482;2023-04-01T18:25:18;99468.41;;;14.14;68.63
4981;BME280;2507;50.392;7.482;2023-04-01T18:27:51;99475.88;;;13.93;69.90
4981;BME280;2507;50.392;7.482;2023-04-01T18:30:22;99469.50;;;13.70;70.76
4981;BME280;2507;50.392;7.482;2023-04-01T18:33:01;99480.34;;;13.92;70.49
4981;BME280;2507;50.392;7.482;2023-04-01T18:35:51;99491.09;;;13.99;70.15
4981;BME280;2507;50.392;7.482;2023-04-01T18:38:49;99490.69;;;14.19;69.45
4981;BME280;2507;50.392;7.482;2023-04-01T18:41:20;99498.38;;;14.05;69.57
4981;BME280;2507;50.392;7.482;2023-04-01T18:46:58;99511.06;;;14.01;70.07
4981;BME280;2507;50.392;7.482;2023-04-01T18:49:30;99505.97;;;14.08;69.85
4981;BME280;2507;50.392;7.482;2023-04-01T18:52:07;99509.13;;;14.11;69.04
4981;BME280;2507;50.392;7.482;2023-04-01T18:55:21;99513.94;;;14.16;68.12
4981;BME280;2507;50.392;7.482;2023-04-01T18:57:49;99513.13;;;13.90;68.76
4981;BME280;2507;50.392;7.482;2023-04-01T19:00:25;99528.59;;;13.85;69.34
4981;BME280;2507;50.392;7.482;2023-04-01T19:03:34;99531.03;;;13.78;69.19
4981;BME280;2507;50.392;7.482;2023-04-01T19:06:23;99538.06;;;13.70;69.50
4981;BME280;2507;50.392;7.482;2023-04-01T19:08:52;99547.97;;;13.50;70.78
4981;BME280;2507;50.392;7.482;2023-04-01T19:11:30;99552.78;;;13.55;71.33
4981;BME280;2507;50.392;7.482;2023-04-01T19:14:12;99555.19;;;13.48;71.95
4981;BME280;2507;50.392;7.482;2023-04-01T19:17:05;99560.91;;;13.44;72.20
4981;BME280;2507;50.392;7.482;2023-04-01T19:19:46;99563.63;;;13.52;72.66
4981;BME280;2507;50.392;7.482;2023-04-01T19:24:57;99561.38;;;13.39;72.82
4981;BME280;2507;50.392;7.482;2023-04-01T19:28:36;99569.09;;;13.32;73.30
4981;BME280;2507;50.392;7.482;2023-04-01T19:36:07;99576.00;;;13.77;71.15
4981;BME280;2507;50.392;7.482;2023-04-01T19:38:40;99577.84;;;13.59;70.48
4981;BME280;2507;50.392;7.482;2023-04-01T19:46:43;99592.06;;;13.66;70.08
4981;BME280;2507;50.392;7.482;2023-04-01T19:52:15;99596.69;;;13.89;68.41
4981;BME280;2507;50.392;7.482;2023-04-01T19:55:21;99602.81;;;13.90;68.23
4981;BME280;2507;50.392;7.482;2023-04-01T19:58:02;99605.75;;;13.87;68.26
4981;BME280;2507;50.392;7.482;2023-04-01T20:00:37;99635.28;;;13.90;68.20
4981;BME280;2507;50.392;7.482;2023-04-01T20:03:20;99612.22;;;13.92;67.72
4981;BME280;2507;50.392;7.482;2023-04-01T20:14:27;99634.53;;;13.98;66.31
4981;BME280;2507;50.392;7.482;2023-04-01T20:19:54;99636.53;;;14.04;66.07
4981;BME280;2507;50.392;7.482;2023-04-01T20:22:34;99640.78;;;13.97;64.42